Guadalupe, Texas
Current Conditions -  °F | °C
As of 7:51 AM on Friday 28 Nov 2014 (Local Time) from KVCT Reporting Station
Clear Clear  
Wind Chill: 51°   Ceiling: Unl
Heat Index: 51°   Visibility: 10mi
Dew Point: 48°   Wind: 5mph
Humidity: 89%   Direction: 90°E
Pressure: 30.32"   Gusts: NA
Location:  28.7094°N, 97.0351°W
Report Text: KVCT 281351Z 09004KT 10SM CLR 11/09 A3032 RMK AO2 SLP268 T01060089
Loading
Personal Weather Stations






























Interactive Weather Map New forecast layout! Learn more

10-Day Weather Forecast

Advertisements
Track Severe Weather on mobile